PWSweather.com
Personal Weather Stations
Station Observations
ANTHEMNP
Anthem North Parkside, Anthem, AZ 85086

Anthem North ParksideAnthem, AZ 85086

Lat: 33.876464, Lon: -112.13861199999997

Elevation: 1930

Station Type: Davis Vantage Vue with Pro 2 console

http://www.azjerry.com/ANPW/wxindex.php

High Low Average
Temperature 58.4°F14.7°C 40.9°F4.9°C 50.6°F10.3°C
Dew Point 40.0°F4.4°C 24.1°F-4.4°C 33.5°F0.8°C
Winds 6.9 mph 11.1 kmh Calm Calm 2.0 mph S3.2 kmh S
Wind Gusts 10.4 mph16.7 kmh -- 3.0 mph4.8 kmh
Humidity 78% 27% 55%
Pressure 30.09 in1019.0 mb 29.99 in1015.6 mb -
Precipitation 0.00 in0.0 mm - -
Hour Temp Dew Point Humidity Winds Wind Gusts Pressure Precip Precip Rate Daily Precip Total
12:00 AM 49.6°F9.8°C 38.3°F3.5°C 65% Calm Calm -- 30.00 in1015.9 mb - 0.00 in0.0 mm 0.00 in0.0 mm
12:10 AM 49.3°F9.6°C 38.0°F3.3°C 65% Calm Calm -- 30.00 in1015.9 mb - 0.00 in0.0 mm 0.00 in0.0 mm
12:15 AM 49.2°F9.6°C 37.9°F3.3°C 65% Calm Calm -- 30.00 in1015.9 mb - 0.00 in0.0 mm 0.00 in0.0 mm
12:20 AM 49.6°F9.8°C 38.3°F3.5°C 65% Calm Calm -- 30.01 in1016.3 mb - 0.00 in0.0 mm 0.00 in0.0 mm
12:25 AM 50.0°F10.0°C 38.3°F3.5°C 64% Calm Calm -- 30.01 in1016.3 mb - 0.00 in0.0 mm 0.00 in0.0 mm
12:30 AM 49.7°F9.8°C 38.4°F3.6°C 65% Calm Calm -- 30.02 in1016.6 mb - 0.00 in0.0 mm 0.00 in0.0 mm
12:35 AM 49.2°F9.6°C 38.7°F3.7°C 67% Calm Calm -- 30.02 in1016.6 mb - 0.00 in0.0 mm 0.00 in0.0 mm
12:40 AM 48.8°F9.3°C 39.4°F4.1°C 70% Calm Calm -- 30.02 in1016.6 mb - 0.00 in0.0 mm 0.00 in0.0 mm
12:55 AM 47.9°F8.8°C 38.2°F3.4°C 69% Calm Calm -- 30.02 in1016.6 mb - 0.00 in0.0 mm 0.00 in0.0 mm
01:10 AM 48.9°F9.4°C 38.8°F3.8°C 68% Calm Calm 1.2 mph1.9 kmh 30.02 in1016.6 mb - 0.00 in0.0 mm 0.00 in0.0 mm
01:15 AM 48.9°F9.4°C 38.4°F3.6°C 67% 1.2 mph SE1.9 kmh SE 1.2 mph1.9 kmh 30.02 in1016.6 mb - 0.00 in0.0 mm 0.00 in0.0 mm
01:25 AM 48.9°F9.4°C 38.1°F3.4°C 66% Calm Calm -- 30.02 in1016.6 mb - 0.00 in0.0 mm 0.00 in0.0 mm
01:40 AM 48.9°F9.4°C 38.0°F3.3°C 66% Calm Calm -- 30.02 in1016.6 mb - 0.00 in0.0 mm 0.00 in0.0 mm
01:50 AM 49.3°F9.6°C 37.7°F3.2°C 64% Calm Calm 1.2 mph1.9 kmh 30.02 in1016.6 mb - 0.00 in0.0 mm 0.00 in0.0 mm
01:55 AM 49.5°F9.7°C 37.9°F3.3°C 64% 1.2 mph SE1.9 kmh SE 1.2 mph1.9 kmh 30.02 in1016.6 mb - 0.00 in0.0 mm 0.00 in0.0 mm
02:10 AM 49.6°F9.8°C 37.9°F3.3°C 64% Calm Calm -- 30.01 in1016.3 mb - 0.00 in0.0 mm 0.00 in0.0 mm
02:15 AM 49.4°F9.7°C 37.8°F3.2°C 64% Calm Calm -- 30.02 in1016.6 mb - 0.00 in0.0 mm 0.00 in0.0 mm
02:25 AM 49.2°F9.6°C 37.9°F3.3°C 65% Calm Calm 1.2 mph1.9 kmh 30.01 in1016.3 mb - 0.00 in0.0 mm 0.00 in0.0 mm
02:30 AM 48.9°F9.4°C 38.1°F3.4°C 66% 1.2 mph SE1.9 kmh SE 2.3 mph3.7 kmh 30.02 in1016.6 mb - 0.00 in0.0 mm 0.00 in0.0 mm
02:35 AM 48.7°F9.3°C 37.9°F3.3°C 66% 1.2 mph SE1.9 kmh SE 2.3 mph3.7 kmh 30.01 in1016.3 mb - 0.00 in0.0 mm 0.00 in0.0 mm
02:40 AM 48.6°F9.2°C 37.7°F3.2°C 66% 1.2 mph SE1.9 kmh SE 1.2 mph1.9 kmh 30.01 in1016.3 mb - 0.00 in0.0 mm 0.00 in0.0 mm
02:45 AM 48.5°F9.2°C 38.0°F3.3°C 67% 1.2 mph SE1.9 kmh SE 2.3 mph3.7 kmh 30.01 in1016.3 mb - 0.00 in0.0 mm 0.00 in0.0 mm
02:50 AM 48.5°F9.2°C 37.7°F3.2°C 66% 1.2 mph SE1.9 kmh SE 1.2 mph1.9 kmh 30.01 in1016.3 mb - 0.00 in0.0 mm 0.00 in0.0 mm
02:55 AM 48.5°F9.2°C 38.0°F3.3°C 67% Calm Calm -- 30.01 in1016.3 mb - 0.00 in0.0 mm 0.00 in0.0 mm
03:00 AM 48.2°F9.0°C 37.8°F3.2°C 67% Calm Calm -- 30.00 in1015.9 mb - 0.00 in0.0 mm 0.00 in0.0 mm
03:10 AM 48.0°F8.9°C 38.0°F3.3°C 68% Calm Calm -- 29.99 in1015.6 mb - 0.00 in0.0 mm 0.00 in0.0 mm
03:15 AM 47.8°F8.8°C 37.7°F3.2°C 68% Calm Calm -- 29.99 in1015.6 mb - 0.00 in0.0 mm 0.00 in0.0 mm
03:20 AM 47.4°F8.6°C 37.7°F3.2°C 69% Calm Calm -- 29.99 in1015.6 mb - 0.00 in0.0 mm 0.00 in0.0 mm
03:25 AM 46.9°F8.3°C 37.7°F3.2°C 70% Calm Calm -- 29.99 in1015.6 mb - 0.00 in0.0 mm 0.00 in0.0 mm
03:30 AM 46.5°F8.1°C 37.6°F3.1°C 71% Calm Calm -- 29.99 in1015.6 mb - 0.00 in0.0 mm 0.00 in0.0 mm
03:35 AM 46.1°F7.8°C 37.6°F3.1°C 72% Calm Calm -- 30.00 in1015.9 mb - 0.00 in0.0 mm 0.00 in0.0 mm
03:40 AM 45.8°F7.7°C 37.7°F3.2°C 73% Calm Calm -- 29.99 in1015.6 mb - 0.00 in0.0 mm 0.00 in0.0 mm
03:45 AM 45.5°F7.5°C 37.3°F2.9°C 73% Calm Calm -- 29.99 in1015.6 mb - 0.00 in0.0 mm 0.00 in0.0 mm
03:55 AM 45.9°F7.7°C 37.7°F3.2°C 73% Calm Calm -- 29.99 in1015.6 mb - 0.00 in0.0 mm 0.00 in0.0 mm
04:00 AM 45.9°F7.7°C 37.7°F3.2°C 73% Calm Calm -- 29.99 in1015.6 mb - 0.00 in0.0 mm 0.00 in0.0 mm
04:10 AM 45.1°F7.3°C 38.0°F3.3°C 76% Calm Calm 1.2 mph1.9 kmh 30.00 in1015.9 mb - 0.00 in0.0 mm 0.00 in0.0 mm
04:25 AM 45.0°F7.2°C 37.2°F2.9°C 74% Calm Calm -- 30.00 in1015.9 mb - 0.00 in0.0 mm 0.00 in0.0 mm
04:35 AM 45.4°F7.4°C 37.9°F3.3°C 75% Calm Calm -- 30.01 in1016.3 mb - 0.00 in0.0 mm 0.00 in0.0 mm
04:40 AM 45.2°F7.3°C 37.8°F3.2°C 75% Calm Calm -- 30.00 in1015.9 mb - 0.00 in0.0 mm 0.00 in0.0 mm
04:45 AM 45.1°F7.3°C 37.6°F3.1°C 75% Calm Calm -- 30.01 in1016.3 mb - 0.00 in0.0 mm 0.00 in0.0 mm
05:00 AM 45.5°F7.5°C 37.7°F3.2°C 74% Calm Calm -- 30.01 in1016.3 mb - 0.00 in0.0 mm 0.00 in0.0 mm
05:10 AM 45.7°F7.6°C 37.9°F3.3°C 74% 1.2 mph S1.9 kmh S 2.3 mph3.7 kmh 30.00 in1015.9 mb - 0.00 in0.0 mm 0.00 in0.0 mm
05:15 AM 45.7°F7.6°C 37.9°F3.3°C 74% 1.2 mph SSW1.9 kmh SSW 1.2 mph1.9 kmh 30.00 in1015.9 mb - 0.00 in0.0 mm 0.00 in0.0 mm
05:20 AM 45.6°F7.6°C 38.2°F3.4°C 75% 2.3 mph SW3.7 kmh SW 3.5 mph5.6 kmh 30.00 in1015.9 mb - 0.00 in0.0 mm 0.00 in0.0 mm
05:25 AM 45.6°F7.6°C 38.1°F3.4°C 75% Calm Calm 2.3 mph3.7 kmh 30.00 in1015.9 mb - 0.00 in0.0 mm 0.00 in0.0 mm
05:30 AM 45.4°F7.4°C 38.0°F3.3°C 75% 1.2 mph S1.9 kmh S 2.3 mph3.7 kmh 30.00 in1015.9 mb - 0.00 in0.0 mm 0.00 in0.0 mm
05:40 AM 45.0°F7.2°C 37.9°F3.3°C 76% 1.2 mph SE1.9 kmh SE 1.2 mph1.9 kmh 30.00 in1015.9 mb - 0.00 in0.0 mm 0.00 in0.0 mm
05:45 AM 44.7°F7.1°C 37.9°F3.3°C 77% 1.2 mph SE1.9 kmh SE 2.3 mph3.7 kmh 30.00 in1015.9 mb - 0.00 in0.0 mm 0.00 in0.0 mm
05:50 AM 44.5°F6.9°C 37.7°F3.2°C 77% 1.2 mph SE1.9 kmh SE 2.3 mph3.7 kmh 30.00 in1015.9 mb - 0.00 in0.0 mm 0.00 in0.0 mm
06:00 AM 44.1°F6.7°C 37.7°F3.2°C 78% 1.2 mph SE1.9 kmh SE 1.2 mph1.9 kmh 30.00 in1015.9 mb - 0.00 in0.0 mm 0.00 in0.0 mm
06:10 AM 44.2°F6.8°C 37.4°F3.0°C 77% Calm Calm -- 30.01 in1016.3 mb - 0.00 in0.0 mm 0.00 in0.0 mm
06:15 AM 44.0°F6.7°C 37.6°F3.1°C 78% Calm Calm 1.2 mph1.9 kmh 30.01 in1016.3 mb - 0.00 in0.0 mm 0.00 in0.0 mm
06:20 AM 43.9°F6.6°C 37.5°F3.1°C 78% Calm Calm -- 30.01 in1016.3 mb - 0.00 in0.0 mm 0.00 in0.0 mm
06:25 AM 43.8°F6.6°C 37.4°F3.0°C 78% Calm Calm -- 30.02 in1016.6 mb - 0.00 in0.0 mm 0.00 in0.0 mm
06:30 AM 43.8°F6.6°C 37.4°F3.0°C 78% Calm Calm 2.3 mph3.7 kmh 30.02 in1016.6 mb - 0.00 in0.0 mm 0.00 in0.0 mm
06:35 AM 44.2°F6.8°C 37.4°F3.0°C 77% Calm Calm -- 30.02 in1016.6 mb - 0.00 in0.0 mm 0.00 in0.0 mm
06:40 AM 44.5°F6.9°C 37.4°F3.0°C 76% Calm Calm -- 30.02 in1016.6 mb - 0.00 in0.0 mm 0.00 in0.0 mm
06:45 AM 44.3°F6.8°C 37.6°F3.1°C 77% Calm Calm -- 30.02 in1016.6 mb - 0.00 in0.0 mm 0.00 in0.0 mm
06:55 AM 44.4°F6.9°C 37.3°F2.9°C 76% Calm Calm 1.2 mph1.9 kmh 30.03 in1016.9 mb - 0.00 in0.0 mm 0.00 in0.0 mm
07:15 AM 44.2°F6.8°C 37.5°F3.1°C 77% Calm Calm 1.2 mph1.9 kmh 30.02 in1016.6 mb - 0.00 in0.0 mm 0.00 in0.0 mm
07:20 AM 44.2°F6.8°C 37.4°F3.0°C 77% 1.2 mph S1.9 kmh S 3.5 mph5.6 kmh 30.02 in1016.6 mb - 0.00 in0.0 mm 0.00 in0.0 mm
07:25 AM 44.2°F6.8°C 37.1°F2.8°C 76% Calm Calm 1.2 mph1.9 kmh 30.02 in1016.6 mb - 0.00 in0.0 mm 0.00 in0.0 mm
07:30 AM 44.1°F6.7°C 37.0°F2.8°C 76% Calm Calm 2.3 mph3.7 kmh 30.03 in1016.9 mb - 0.00 in0.0 mm 0.00 in0.0 mm
07:35 AM 43.7°F6.5°C 36.9°F2.7°C 77% 1.2 mph SE1.9 kmh SE 2.3 mph3.7 kmh 30.03 in1016.9 mb - 0.00 in0.0 mm 0.00 in0.0 mm
07:40 AM 43.3°F6.3°C 36.9°F2.7°C 78% Calm Calm 1.2 mph1.9 kmh 30.03 in1016.9 mb - 0.00 in0.0 mm 0.00 in0.0 mm
07:45 AM 43.2°F6.2°C 36.8°F2.7°C 78% Calm Calm -- 30.03 in1016.9 mb - 0.00 in0.0 mm 0.00 in0.0 mm
07:50 AM 43.1°F6.2°C 36.7°F2.6°C 78% Calm Calm 2.3 mph3.7 kmh 30.04 in1017.3 mb - 0.00 in0.0 mm 0.00 in0.0 mm
07:55 AM 43.2°F6.2°C 36.8°F2.7°C 78% Calm Calm 2.3 mph3.7 kmh 30.04 in1017.3 mb - 0.00 in0.0 mm 0.00 in0.0 mm
08:00 AM 43.3°F6.3°C 36.9°F2.7°C 78% Calm Calm 2.3 mph3.7 kmh 30.05 in1017.6 mb - 0.00 in0.0 mm 0.00 in0.0 mm
08:10 AM 43.6°F6.4°C 37.2°F2.9°C 78% Calm Calm -- 30.05 in1017.6 mb - 0.00 in0.0 mm 0.00 in0.0 mm
08:15 AM 43.8°F6.6°C 37.4°F3.0°C 78% Calm Calm 1.2 mph1.9 kmh 30.06 in1017.9 mb - 0.00 in0.0 mm 0.00 in0.0 mm
08:20 AM 44.2°F6.8°C 37.8°F3.2°C 78% Calm Calm 1.2 mph1.9 kmh 30.06 in1017.9 mb - 0.00 in0.0 mm 0.00 in0.0 mm
08:25 AM 44.7°F7.1°C 37.9°F3.3°C 77% Calm Calm 1.2 mph1.9 kmh 30.06 in1017.9 mb - 0.00 in0.0 mm 0.00 in0.0 mm
08:30 AM 45.3°F7.4°C 38.2°F3.4°C 76% 1.2 mph SE1.9 kmh SE 1.2 mph1.9 kmh 30.06 in1017.9 mb - 0.00 in0.0 mm 0.00 in0.0 mm
08:35 AM 45.9°F7.7°C 38.4°F3.6°C 75% Calm Calm 2.3 mph3.7 kmh 30.06 in1017.9 mb - 0.00 in0.0 mm 0.00 in0.0 mm
08:40 AM 46.7°F8.2°C 38.5°F3.6°C 73% 1.2 mph SE1.9 kmh SE 3.5 mph5.6 kmh 30.07 in1018.3 mb - 0.00 in0.0 mm 0.00 in0.0 mm
08:45 AM 48.1°F8.9°C 38.8°F3.8°C 70% Calm Calm 1.2 mph1.9 kmh 30.07 in1018.3 mb - 0.00 in0.0 mm 0.00 in0.0 mm
08:50 AM 49.2°F9.6°C 38.7°F3.7°C 67% 1.2 mph SSE1.9 kmh SSE 3.5 mph5.6 kmh 30.07 in1018.3 mb - 0.00 in0.0 mm 0.00 in0.0 mm
08:55 AM 49.9°F9.9°C 38.9°F3.8°C 66% 1.2 mph SE1.9 kmh SE 3.5 mph5.6 kmh 30.06 in1017.9 mb - 0.00 in0.0 mm 0.00 in0.0 mm
09:00 AM 50.3°F10.2°C 39.0°F3.9°C 65% 2.3 mph SSE3.7 kmh SSE 4.6 mph7.4 kmh 30.07 in1018.3 mb - 0.00 in0.0 mm 0.00 in0.0 mm
09:10 AM 51.4°F10.8°C 39.2°F4.0°C 63% 1.2 mph E1.9 kmh E 3.5 mph5.6 kmh 30.07 in1018.3 mb - 0.00 in0.0 mm 0.00 in0.0 mm
09:15 AM 51.9°F11.1°C 39.3°F4.1°C 62% 2.3 mph SE3.7 kmh SE 3.5 mph5.6 kmh 30.07 in1018.3 mb - 0.00 in0.0 mm 0.00 in0.0 mm
09:20 AM 52.2°F11.2°C 39.2°F4.0°C 61% 2.3 mph SE3.7 kmh SE 3.5 mph5.6 kmh 30.07 in1018.3 mb - 0.00 in0.0 mm 0.00 in0.0 mm
09:25 AM 52.6°F11.4°C 39.1°F3.9°C 60% 2.3 mph SSW3.7 kmh SSW 3.5 mph5.6 kmh 30.07 in1018.3 mb - 0.00 in0.0 mm 0.00 in0.0 mm
09:30 AM 52.3°F11.3°C 38.8°F3.8°C 60% 2.3 mph S3.7 kmh S 3.5 mph5.6 kmh 30.07 in1018.3 mb - 0.00 in0.0 mm 0.00 in0.0 mm
09:35 AM 52.6°F11.4°C 39.1°F3.9°C 60% 2.3 mph SSW3.7 kmh SSW 3.5 mph5.6 kmh 30.07 in1018.3 mb - 0.00 in0.0 mm 0.00 in0.0 mm
09:40 AM 52.3°F11.3°C 38.8°F3.8°C 60% 1.2 mph SE1.9 kmh SE 2.3 mph3.7 kmh 30.07 in1018.3 mb - 0.00 in0.0 mm 0.00 in0.0 mm
09:45 AM 52.2°F11.2°C 38.7°F3.7°C 60% 2.3 mph S3.7 kmh S 3.5 mph5.6 kmh 30.07 in1018.3 mb - 0.00 in0.0 mm 0.00 in0.0 mm
09:50 AM 52.8°F11.6°C 39.3°F4.1°C 60% Calm Calm 3.5 mph5.6 kmh 30.07 in1018.3 mb - 0.00 in0.0 mm 0.00 in0.0 mm
09:55 AM 53.5°F11.9°C 39.5°F4.2°C 59% 1.2 mph SSW1.9 kmh SSW 2.3 mph3.7 kmh 30.07 in1018.3 mb - 0.00 in0.0 mm 0.00 in0.0 mm
10:00 AM 54.0°F12.2°C 39.5°F4.2°C 58% 1.2 mph SSE1.9 kmh SSE 5.8 mph9.3 kmh 30.08 in1018.6 mb - 0.00 in0.0 mm 0.00 in0.0 mm
10:10 AM 53.3°F11.8°C 39.4°F4.1°C 59% 1.2 mph SE1.9 kmh SE 4.6 mph7.4 kmh 30.08 in1018.6 mb - 0.00 in0.0 mm 0.00 in0.0 mm
10:15 AM 53.9°F12.2°C 39.0°F3.9°C 57% 1.2 mph S1.9 kmh S 3.5 mph5.6 kmh 30.09 in1019.0 mb - 0.00 in0.0 mm 0.00 in0.0 mm
10:20 AM 53.8°F12.1°C 39.4°F4.1°C 58% 2.3 mph SW3.7 kmh SW 3.5 mph5.6 kmh 30.09 in1019.0 mb - 0.00 in0.0 mm 0.00 in0.0 mm
10:25 AM 53.5°F11.9°C 39.5°F4.2°C 59% 2.3 mph SSE3.7 kmh SSE 3.5 mph5.6 kmh 30.08 in1018.6 mb - 0.00 in0.0 mm 0.00 in0.0 mm
10:30 AM 53.9°F12.2°C 39.4°F4.1°C 58% 2.3 mph S3.7 kmh S 4.6 mph7.4 kmh 30.09 in1019.0 mb - 0.00 in0.0 mm 0.00 in0.0 mm
10:35 AM 53.7°F12.1°C 39.7°F4.3°C 59% 2.3 mph S3.7 kmh S 3.5 mph5.6 kmh 30.09 in1019.0 mb - 0.00 in0.0 mm 0.00 in0.0 mm
10:40 AM 54.0°F12.2°C 40.0°F4.4°C 59% 2.3 mph SW3.7 kmh SW 3.5 mph5.6 kmh 30.08 in1018.6 mb - 0.00 in0.0 mm 0.00 in0.0 mm
10:45 AM 54.5°F12.5°C 39.6°F4.2°C 57% 2.3 mph SW3.7 kmh SW 3.5 mph5.6 kmh 30.08 in1018.6 mb - 0.00 in0.0 mm 0.00 in0.0 mm
10:50 AM 54.9°F12.7°C 39.5°F4.2°C 56% 3.5 mph SSW5.6 kmh SSW 5.8 mph9.3 kmh 30.08 in1018.6 mb - 0.00 in0.0 mm 0.00 in0.0 mm
10:55 AM 54.6°F12.6°C 39.2°F4.0°C 56% 1.2 mph N1.9 kmh N 2.3 mph3.7 kmh 30.08 in1018.6 mb - 0.00 in0.0 mm 0.00 in0.0 mm
11:00 AM 54.3°F12.4°C 37.6°F3.1°C 53% 1.2 mph N1.9 kmh N 3.5 mph5.6 kmh 30.08 in1018.6 mb - 0.00 in0.0 mm 0.00 in0.0 mm
11:10 AM 55.3°F12.9°C 32.0°F0.0°C 41% 1.2 mph WSW1.9 kmh WSW 2.3 mph3.7 kmh 30.08 in1018.6 mb - 0.00 in0.0 mm 0.00 in0.0 mm
11:15 AM 55.9°F13.3°C 31.9°F-0.1°C 40% 1.2 mph NW1.9 kmh NW 3.5 mph5.6 kmh 30.08 in1018.6 mb - 0.00 in0.0 mm 0.00 in0.0 mm
11:20 AM 55.7°F13.2°C 30.4°F-0.9°C 38% 2.3 mph SW3.7 kmh SW 3.5 mph5.6 kmh 30.08 in1018.6 mb - 0.00 in0.0 mm 0.00 in0.0 mm
11:25 AM 55.4°F13.0°C 30.2°F-1.0°C 38% 4.6 mph WNW7.4 kmh WNW 8.1 mph13.0 kmh 30.08 in1018.6 mb - 0.00 in0.0 mm 0.00 in0.0 mm
11:30 AM 54.6°F12.6°C 30.2°F-1.0°C 39% 3.5 mph NW5.6 kmh NW 3.5 mph5.6 kmh 30.08 in1018.6 mb - 0.00 in0.0 mm 0.00 in0.0 mm
11:35 AM 54.3°F12.4°C 30.5°F-0.8°C 40% 3.5 mph NW5.6 kmh NW 6.9 mph11.1 kmh 30.08 in1018.6 mb - 0.00 in0.0 mm 0.00 in0.0 mm
11:40 AM 54.3°F12.4°C 30.5°F-0.8°C 40% 2.3 mph WNW3.7 kmh WNW 3.5 mph5.6 kmh 30.08 in1018.6 mb - 0.00 in0.0 mm 0.00 in0.0 mm
11:45 AM 55.0°F12.8°C 31.7°F-0.2°C 41% 2.3 mph SW3.7 kmh SW 3.5 mph5.6 kmh 30.07 in1018.3 mb - 0.00 in0.0 mm 0.00 in0.0 mm
11:50 AM 55.5°F13.1°C 30.9°F-0.6°C 39% 2.3 mph WNW3.7 kmh WNW 3.5 mph5.6 kmh 30.07 in1018.3 mb - 0.00 in0.0 mm 0.00 in0.0 mm
11:55 AM 54.8°F12.7°C 31.5°F-0.3°C 41% 3.5 mph W5.6 kmh W 3.5 mph5.6 kmh 30.07 in1018.3 mb - 0.00 in0.0 mm 0.00 in0.0 mm
12:00 PM 54.6°F12.6°C 31.4°F-0.3°C 41% 3.5 mph SW5.6 kmh SW 8.1 mph13.0 kmh 30.07 in1018.3 mb - 0.00 in0.0 mm 0.00 in0.0 mm
12:10 PM 54.0°F12.2°C 33.1°F0.6°C 45% 2.3 mph SW3.7 kmh SW 3.5 mph5.6 kmh 30.07 in1018.3 mb - 0.00 in0.0 mm 0.00 in0.0 mm
12:20 PM 54.7°F12.6°C 32.6°F0.3°C 43% 3.5 mph SSW5.6 kmh SSW 4.6 mph7.4 kmh 30.06 in1017.9 mb - 0.00 in0.0 mm 0.00 in0.0 mm
12:25 PM 54.6°F12.6°C 31.4°F-0.3°C 41% 5.8 mph S9.3 kmh S 10.4 mph16.7 kmh 30.07 in1018.3 mb - 0.00 in0.0 mm 0.00 in0.0 mm
12:30 PM 55.1°F12.8°C 31.8°F-0.1°C 41% 3.5 mph SSW5.6 kmh SSW 6.9 mph11.1 kmh 30.06 in1017.9 mb - 0.00 in0.0 mm 0.00 in0.0 mm
12:35 PM 55.6°F13.1°C 32.9°F0.5°C 42% 3.5 mph SW5.6 kmh SW 3.5 mph5.6 kmh 30.06 in1017.9 mb - 0.00 in0.0 mm 0.00 in0.0 mm
12:40 PM 56.3°F13.5°C 32.3°F0.2°C 40% 6.9 mph SW11.1 kmh SW 10.4 mph16.7 kmh 30.06 in1017.9 mb - 0.00 in0.0 mm 0.00 in0.0 mm
12:45 PM 57.0°F13.9°C 30.9°F-0.6°C 37% 4.6 mph SW7.4 kmh SW 6.9 mph11.1 kmh 30.06 in1017.9 mb - 0.00 in0.0 mm 0.00 in0.0 mm
12:50 PM 57.8°F14.3°C 28.9°F-1.7°C 33% 5.8 mph SSW9.3 kmh SSW 8.1 mph13.0 kmh 30.06 in1017.9 mb - 0.00 in0.0 mm 0.00 in0.0 mm
12:55 PM 57.7°F14.3°C 29.5°F-1.4°C 34% 2.3 mph N3.7 kmh N 3.5 mph5.6 kmh 30.05 in1017.6 mb - 0.00 in0.0 mm 0.00 in0.0 mm
01:00 PM 58.3°F14.6°C 30.7°F-0.7°C 35% 4.6 mph SW7.4 kmh SW 8.1 mph13.0 kmh 30.05 in1017.6 mb - 0.00 in0.0 mm 0.00 in0.0 mm
01:10 PM 58.3°F14.6°C 27.7°F-2.4°C 31% 4.6 mph WNW7.4 kmh WNW 5.8 mph9.3 kmh 30.05 in1017.6 mb - 0.00 in0.0 mm 0.00 in0.0 mm
01:15 PM 57.6°F14.2°C 28.6°F-1.9°C 33% 2.3 mph WSW3.7 kmh WSW 3.5 mph5.6 kmh 30.05 in1017.6 mb - 0.00 in0.0 mm 0.00 in0.0 mm
01:20 PM 57.8°F14.3°C 28.1°F-2.2°C 32% 2.3 mph SW3.7 kmh SW 3.5 mph5.6 kmh 30.04 in1017.3 mb - 0.00 in0.0 mm 0.00 in0.0 mm
01:25 PM 58.0°F14.4°C 26.7°F-2.9°C 30% 2.3 mph SSW3.7 kmh SSW 3.5 mph5.6 kmh 30.04 in1017.3 mb - 0.00 in0.0 mm 0.00 in0.0 mm
01:30 PM 58.3°F14.6°C 27.8°F-2.3°C 31% 4.6 mph SSW7.4 kmh SSW 10.4 mph16.7 kmh 30.04 in1017.3 mb - 0.00 in0.0 mm 0.00 in0.0 mm
01:40 PM 57.5°F14.2°C 26.3°F-3.2°C 30% 6.9 mph WNW11.1 kmh WNW 5.8 mph9.3 kmh 30.03 in1016.9 mb - 0.00 in0.0 mm 0.00 in0.0 mm
01:45 PM 57.6°F14.2°C 25.6°F-3.6°C 29% 3.5 mph SW5.6 kmh SW 5.8 mph9.3 kmh 30.03 in1016.9 mb - 0.00 in0.0 mm 0.00 in0.0 mm
01:50 PM 57.4°F14.1°C 25.4°F-3.7°C 29% 3.5 mph SW5.6 kmh SW 3.5 mph5.6 kmh 30.02 in1016.6 mb - 0.00 in0.0 mm 0.00 in0.0 mm
01:55 PM 57.6°F14.2°C 25.6°F-3.6°C 29% 3.5 mph NW5.6 kmh NW 6.9 mph11.1 kmh 30.02 in1016.6 mb - 0.00 in0.0 mm 0.00 in0.0 mm
02:00 PM 58.2°F14.6°C 26.0°F-3.3°C 29% 2.3 mph WSW3.7 kmh WSW 3.5 mph5.6 kmh 30.02 in1016.6 mb - 0.00 in0.0 mm 0.00 in0.0 mm
02:10 PM 57.5°F14.2°C 25.5°F-3.6°C 29% 4.6 mph SW7.4 kmh SW 3.5 mph5.6 kmh 30.02 in1016.6 mb - 0.00 in0.0 mm 0.00 in0.0 mm
02:15 PM 57.9°F14.4°C 26.6°F-3.0°C 30% 1.2 mph WNW1.9 kmh WNW 2.3 mph3.7 kmh 30.01 in1016.3 mb - 0.00 in0.0 mm 0.00 in0.0 mm
02:20 PM 58.0°F14.4°C 26.7°F-2.9°C 30% 2.3 mph WSW3.7 kmh WSW 3.5 mph5.6 kmh 30.01 in1016.3 mb - 0.00 in0.0 mm 0.00 in0.0 mm
02:25 PM 58.0°F14.4°C 26.7°F-2.9°C 30% 2.3 mph WSW3.7 kmh WSW 3.5 mph5.6 kmh 30.01 in1016.3 mb - 0.00 in0.0 mm 0.00 in0.0 mm
02:30 PM 58.2°F14.6°C 25.2°F-3.8°C 28% 3.5 mph SSW5.6 kmh SSW 5.8 mph9.3 kmh 30.00 in1015.9 mb - 0.00 in0.0 mm 0.00 in0.0 mm
02:35 PM 58.1°F14.5°C 25.1°F-3.8°C 28% 3.5 mph SW5.6 kmh SW 1.2 mph1.9 kmh 30.00 in1015.9 mb - 0.00 in0.0 mm 0.00 in0.0 mm
02:40 PM 58.2°F14.6°C 25.2°F-3.8°C 28% 2.3 mph SW3.7 kmh SW 6.9 mph11.1 kmh 30.00 in1015.9 mb - 0.00 in0.0 mm 0.00 in0.0 mm
02:45 PM 57.9°F14.4°C 24.1°F-4.4°C 27% 4.6 mph SSW7.4 kmh SSW 3.5 mph5.6 kmh 30.00 in1015.9 mb - 0.00 in0.0 mm 0.00 in0.0 mm
02:50 PM 57.6°F14.2°C 25.6°F-3.6°C 29% 3.5 mph W5.6 kmh W 3.5 mph5.6 kmh 29.99 in1015.6 mb - 0.00 in0.0 mm 0.00 in0.0 mm
02:55 PM 58.1°F14.5°C 26.0°F-3.3°C 29% 2.3 mph SSW3.7 kmh SSW 3.5 mph5.6 kmh 29.99 in1015.6 mb - 0.00 in0.0 mm 0.00 in0.0 mm
03:00 PM 58.4°F14.7°C 25.4°F-3.7°C 28% 3.5 mph WSW5.6 kmh WSW 4.6 mph7.4 kmh 29.99 in1015.6 mb - 0.00 in0.0 mm 0.00 in0.0 mm
03:10 PM 58.0°F14.4°C 25.9°F-3.4°C 29% 4.6 mph S7.4 kmh S 8.1 mph13.0 kmh 29.99 in1015.6 mb - 0.00 in0.0 mm 0.00 in0.0 mm
03:20 PM 58.0°F14.4°C 25.9°F-3.4°C 29% 4.6 mph SE7.4 kmh SE 4.6 mph7.4 kmh 29.99 in1015.6 mb - 0.00 in0.0 mm 0.00 in0.0 mm
03:25 PM 58.0°F14.4°C 25.0°F-3.9°C 28% 5.8 mph SW9.3 kmh SW 5.8 mph9.3 kmh 29.99 in1015.6 mb - 0.00 in0.0 mm 0.00 in0.0 mm
03:30 PM 58.0°F14.4°C 25.9°F-3.4°C 29% 4.6 mph S7.4 kmh S 3.5 mph5.6 kmh 29.99 in1015.6 mb - 0.00 in0.0 mm 0.00 in0.0 mm
03:35 PM 58.0°F14.4°C 25.0°F-3.9°C 28% 4.6 mph SW7.4 kmh SW 8.1 mph13.0 kmh 29.99 in1015.6 mb - 0.00 in0.0 mm 0.00 in0.0 mm
03:40 PM 57.9°F14.4°C 25.0°F-3.9°C 28% 4.6 mph SE7.4 kmh SE 9.2 mph14.8 kmh 29.99 in1015.6 mb - 0.00 in0.0 mm 0.00 in0.0 mm
03:45 PM 57.8°F14.3°C 25.7°F-3.5°C 29% 5.8 mph SW9.3 kmh SW 3.5 mph5.6 kmh 29.99 in1015.6 mb - 0.00 in0.0 mm 0.00 in0.0 mm
03:50 PM 57.9°F14.4°C 24.9°F-3.9°C 28% 3.5 mph SW5.6 kmh SW 10.4 mph16.7 kmh 29.99 in1015.6 mb - 0.00 in0.0 mm 0.00 in0.0 mm
03:55 PM 58.1°F14.5°C 26.0°F-3.3°C 29% 3.5 mph WSW5.6 kmh WSW 5.8 mph9.3 kmh 29.99 in1015.6 mb - 0.00 in0.0 mm 0.00 in0.0 mm
04:00 PM 58.0°F14.4°C 25.9°F-3.4°C 29% 4.6 mph SW7.4 kmh SW 8.1 mph13.0 kmh 29.99 in1015.6 mb - 0.00 in0.0 mm 0.00 in0.0 mm
04:10 PM 57.5°F14.2°C 26.3°F-3.2°C 30% 1.2 mph SW1.9 kmh SW 6.9 mph11.1 kmh 29.99 in1015.6 mb - 0.00 in0.0 mm 0.00 in0.0 mm
04:15 PM 57.9°F14.4°C 27.4°F-2.6°C 31% 2.3 mph SW3.7 kmh SW 3.5 mph5.6 kmh 29.99 in1015.6 mb - 0.00 in0.0 mm 0.00 in0.0 mm
04:20 PM 57.9°F14.4°C 25.8°F-3.4°C 29% 4.6 mph SW7.4 kmh SW 6.9 mph11.1 kmh 29.99 in1015.6 mb - 0.00 in0.0 mm 0.00 in0.0 mm
04:25 PM 57.6°F14.2°C 25.6°F-3.6°C 29% 3.5 mph S5.6 kmh S 5.8 mph9.3 kmh 29.99 in1015.6 mb - 0.00 in0.0 mm 0.00 in0.0 mm
04:30 PM 57.5°F14.2°C 25.5°F-3.6°C 29% 5.8 mph SSW9.3 kmh SSW 5.8 mph9.3 kmh 29.99 in1015.6 mb - 0.00 in0.0 mm 0.00 in0.0 mm
04:35 PM 57.2°F14.0°C 26.0°F-3.3°C 30% 4.6 mph SSW7.4 kmh SSW 4.6 mph7.4 kmh 29.99 in1015.6 mb - 0.00 in0.0 mm 0.00 in0.0 mm
04:40 PM 57.0°F13.9°C 26.6°F-3.0°C 31% 3.5 mph SW5.6 kmh SW 3.5 mph5.6 kmh 29.99 in1015.6 mb - 0.00 in0.0 mm 0.00 in0.0 mm
04:45 PM 56.9°F13.8°C 25.8°F-3.4°C 30% 3.5 mph SSW5.6 kmh SSW 8.1 mph13.0 kmh 29.99 in1015.6 mb - 0.00 in0.0 mm 0.00 in0.0 mm
05:10 PM 56.5°F13.6°C 26.2°F-3.2°C 31% 5.8 mph WSW9.3 kmh WSW 6.9 mph11.1 kmh 29.99 in1015.6 mb - 0.00 in0.0 mm 0.00 in0.0 mm
05:15 PM 56.4°F13.6°C 26.9°F-2.8°C 32% 2.3 mph SW3.7 kmh SW 3.5 mph5.6 kmh 29.99 in1015.6 mb - 0.00 in0.0 mm 0.00 in0.0 mm
05:30 PM 55.9°F13.3°C 26.5°F-3.1°C 32% 2.3 mph SW3.7 kmh SW 3.5 mph5.6 kmh 29.99 in1015.6 mb - 0.00 in0.0 mm 0.00 in0.0 mm
05:55 PM 54.1°F12.3°C 27.7°F-2.4°C 36% 4.6 mph SSW7.4 kmh SSW 4.6 mph7.4 kmh 29.99 in1015.6 mb - 0.00 in0.0 mm 0.00 in0.0 mm
06:00 PM 53.9°F12.2°C 28.2°F-2.1°C 37% 2.3 mph SW3.7 kmh SW 4.6 mph7.4 kmh 29.99 in1015.6 mb - 0.00 in0.0 mm 0.00 in0.0 mm
06:10 PM 53.4°F11.9°C 27.7°F-2.4°C 37% 2.3 mph SW3.7 kmh SW 4.6 mph7.4 kmh 29.99 in1015.6 mb - 0.00 in0.0 mm 0.00 in0.0 mm
06:15 PM 53.2°F11.8°C 27.5°F-2.5°C 37% 2.3 mph SW3.7 kmh SW 4.6 mph7.4 kmh 29.99 in1015.6 mb - 0.00 in0.0 mm 0.00 in0.0 mm
06:20 PM 52.9°F11.6°C 28.6°F-1.9°C 39% 2.3 mph SW3.7 kmh SW 3.5 mph5.6 kmh 29.99 in1015.6 mb - 0.00 in0.0 mm 0.00 in0.0 mm
06:25 PM 52.5°F11.4°C 28.3°F-2.1°C 39% 2.3 mph SW3.7 kmh SW 2.3 mph3.7 kmh 29.99 in1015.6 mb - 0.00 in0.0 mm 0.00 in0.0 mm
06:30 PM 52.3°F11.3°C 28.7°F-1.8°C 40% 1.2 mph SSW1.9 kmh SSW 3.5 mph5.6 kmh 29.99 in1015.6 mb - 0.00 in0.0 mm 0.00 in0.0 mm
06:35 PM 52.2°F11.2°C 28.6°F-1.9°C 40% 2.3 mph SW3.7 kmh SW 3.5 mph5.6 kmh 29.99 in1015.6 mb - 0.00 in0.0 mm 0.00 in0.0 mm
06:40 PM 52.0°F11.1°C 29.0°F-1.7°C 41% 2.3 mph SW3.7 kmh SW 3.5 mph5.6 kmh 29.99 in1015.6 mb - 0.00 in0.0 mm 0.00 in0.0 mm
06:45 PM 51.8°F11.0°C 29.4°F-1.4°C 42% 1.2 mph SW1.9 kmh SW 3.5 mph5.6 kmh 29.99 in1015.6 mb - 0.00 in0.0 mm 0.00 in0.0 mm
06:50 PM 51.7°F10.9°C 29.3°F-1.5°C 42% 1.2 mph S1.9 kmh S 2.3 mph3.7 kmh 29.99 in1015.6 mb - 0.00 in0.0 mm 0.00 in0.0 mm
06:55 PM 51.5°F10.8°C 29.7°F-1.3°C 43% 1.2 mph SSW1.9 kmh SSW 2.3 mph3.7 kmh 29.99 in1015.6 mb - 0.00 in0.0 mm 0.00 in0.0 mm
07:00 PM 51.3°F10.7°C 30.1°F-1.1°C 44% 1.2 mph SSW1.9 kmh SSW 3.5 mph5.6 kmh 29.99 in1015.6 mb - 0.00 in0.0 mm 0.00 in0.0 mm
07:35 PM 49.9°F9.9°C 31.0°F-0.6°C 48% 1.2 mph SW1.9 kmh SW 1.2 mph1.9 kmh 29.99 in1015.6 mb - 0.00 in0.0 mm 0.00 in0.0 mm
07:45 PM 49.6°F9.8°C 30.2°F-1.0°C 47% Calm Calm -- 29.99 in1015.6 mb - 0.00 in0.0 mm 0.00 in0.0 mm
07:50 PM 48.7°F9.3°C 30.9°F-0.6°C 50% Calm Calm -- 29.99 in1015.6 mb - 0.00 in0.0 mm 0.00 in0.0 mm
07:55 PM 48.2°F9.0°C 31.3°F-0.4°C 52% Calm Calm -- 29.99 in1015.6 mb - 0.00 in0.0 mm 0.00 in0.0 mm
08:00 PM 48.2°F9.0°C 30.9°F-0.6°C 51% Calm Calm 1.2 mph1.9 kmh 29.99 in1015.6 mb - 0.00 in0.0 mm 0.00 in0.0 mm
08:10 PM 48.4°F9.1°C 31.1°F-0.5°C 51% Calm Calm -- 29.99 in1015.6 mb - 0.00 in0.0 mm 0.00 in0.0 mm
08:20 PM 48.4°F9.1°C 30.6°F-0.8°C 50% Calm Calm 1.2 mph1.9 kmh 29.99 in1015.6 mb - 0.00 in0.0 mm 0.00 in0.0 mm
08:30 PM 48.5°F9.2°C 30.7°F-0.7°C 50% Calm Calm -- 29.99 in1015.6 mb - 0.00 in0.0 mm 0.00 in0.0 mm
08:50 PM 47.6°F8.7°C 31.3°F-0.4°C 53% 1.2 mph SE1.9 kmh SE 1.2 mph1.9 kmh 29.99 in1015.6 mb - 0.00 in0.0 mm 0.00 in0.0 mm
08:55 PM 47.6°F8.7°C 31.8°F-0.1°C 54% 1.2 mph SE1.9 kmh SE 1.2 mph1.9 kmh 29.99 in1015.6 mb - 0.00 in0.0 mm 0.00 in0.0 mm
09:30 PM 46.6°F8.1°C 31.7°F-0.2°C 56% Calm Calm 2.3 mph3.7 kmh 29.99 in1015.6 mb - 0.00 in0.0 mm 0.00 in0.0 mm
09:40 PM 47.2°F8.4°C 31.8°F-0.1°C 55% 1.2 mph SSW1.9 kmh SSW -- 29.99 in1015.6 mb - 0.00 in0.0 mm 0.00 in0.0 mm
09:45 PM 46.8°F8.2°C 31.9°F-0.1°C 56% Calm Calm -- 29.99 in1015.6 mb - 0.00 in0.0 mm 0.00 in0.0 mm
09:50 PM 46.4°F8.0°C 32.0°F0.0°C 57% Calm Calm -- 29.99 in1015.6 mb - 0.00 in0.0 mm 0.00 in0.0 mm
09:55 PM 45.9°F7.7°C 31.9°F-0.1°C 58% Calm Calm -- 29.99 in1015.6 mb - 0.00 in0.0 mm 0.00 in0.0 mm
10:00 PM 45.4°F7.4°C 32.3°F0.2°C 60% Calm Calm -- 29.99 in1015.6 mb - 0.00 in0.0 mm 0.00 in0.0 mm
10:30 PM 44.5°F6.9°C 31.9°F-0.1°C 61% Calm Calm -- 29.99 in1015.6 mb - 0.00 in0.0 mm 0.00 in0.0 mm
10:35 PM 44.1°F6.7°C 32.0°F0.0°C 62% Calm Calm -- 29.99 in1015.6 mb - 0.00 in0.0 mm 0.00 in0.0 mm
10:40 PM 43.4°F6.3°C 32.8°F0.4°C 66% Calm Calm -- 29.99 in1015.6 mb - 0.00 in0.0 mm 0.00 in0.0 mm
10:50 PM 42.6°F5.9°C 32.4°F0.2°C 67% Calm Calm -- 29.99 in1015.6 mb - 0.00 in0.0 mm 0.00 in0.0 mm
11:00 PM 41.6°F5.3°C 31.8°F-0.1°C 68% Calm Calm -- 29.99 in1015.6 mb - 0.00 in0.0 mm 0.00 in0.0 mm
11:10 PM 41.7°F5.4°C 32.6°F0.3°C 70% Calm Calm -- 29.99 in1015.6 mb - 0.00 in0.0 mm 0.00 in0.0 mm
11:20 PM 41.9°F5.5°C 33.2°F0.7°C 71% Calm Calm 1.2 mph1.9 kmh 29.99 in1015.6 mb - 0.00 in0.0 mm 0.00 in0.0 mm
11:25 PM 41.9°F5.5°C 33.5°F0.8°C 72% 1.2 mph N1.9 kmh N 1.2 mph1.9 kmh 29.99 in1015.6 mb - 0.00 in0.0 mm 0.00 in0.0 mm
11:30 PM 41.7°F5.4°C 32.3°F0.2°C 69% Calm Calm -- 29.99 in1015.6 mb - 0.00 in0.0 mm 0.00 in0.0 mm
11:35 PM 41.4°F5.2°C 33.4°F0.8°C 73% 1.2 mph N1.9 kmh N 1.2 mph1.9 kmh 29.99 in1015.6 mb - 0.00 in0.0 mm 0.00 in0.0 mm
11:40 PM 40.9°F4.9°C 33.3°F0.7°C 74% Calm Calm -- 29.99 in1015.6 mb - 0.00 in0.0 mm 0.00 in0.0 mm
11:50 PM 40.9°F4.9°C 32.6°F0.3°C 72% Calm Calm -- 29.99 in1015.6 mb - 0.00 in0.0 mm 0.00 in0.0 mm
11:55 PM 41.5°F5.3°C 32.1°F0.1°C 69% Calm Calm -- 29.99 in1015.6 mb - 0.00 in0.0 mm 0.00 in0.0 mm